Time;durP1;ratioP1;P1;durP2;ratioP2;P2;SDS_P1;SDS_P2;PMS_P1;PMS_P2;Temp;Humidity;BMP_temperature;BMP_pressure;BME280_temperature;BME280_humidity;BME280_pressure;Samples;Min_cycle;Max_cycle;Signal;HPM_P1;HPM_P2
2022/08/18 00:00:30;;;;;;;14.90;12.63;;;22.60;82.60;;;;;;5125470;27;20197;-94
2022/08/18 00:03:04;;;;;;;13.87;11.73;;;22.60;82.40;;;;;;5138583;27;20185;-94
2022/08/18 00:05:35;;;;;;;15.87;12.53;;;22.60;82.80;;;;;;5135951;27;20201;-94
2022/08/18 00:10:58;;;;;;;14.67;11.50;;;22.50;82.60;;;;;;5135679;27;20232;-94
2022/08/18 00:13:26;;;;;;;14.40;11.83;;;22.50;82.50;;;;;;5137074;27;20276;-94
2022/08/18 00:18:50;;;;;;;15.50;11.80;;;22.50;82.10;;;;;;5188071;22;20307;-96
2022/08/18 00:21:19;;;;;;;17.77;12.80;;;22.50;82.20;;;;;;5053711;28;20230;-94
2022/08/18 00:23:46;;;;;;;14.47;12.80;;;22.40;82.50;;;;;;5055521;28;20208;-95
2022/08/18 00:26:16;;;;;;;18.07;13.03;;;22.40;82.30;;;;;;5054366;28;20270;-94
2022/08/18 00:28:44;;;;;;;16.87;13.93;;;22.40;82.30;;;;;;5055338;28;20199;-95
2022/08/18 00:31:11;;;;;;;15.77;12.13;;;22.40;82.40;;;;;;5054626;28;20316;-94
2022/08/18 00:33:42;;;;;;;16.87;13.70;;;22.40;82.70;;;;;;5055572;28;20212;-94
2022/08/18 00:36:09;;;;;;;15.13;12.73;;;22.40;82.60;;;;;;5056017;28;20254;-94
2022/08/18 00:38:37;;;;;;;18.10;13.20;;;22.30;82.00;;;;;;5054971;28;20220;-93
2022/08/18 00:41:06;;;;;;;17.23;14.17;;;22.30;81.80;;;;;;5055389;28;20292;-93
2022/08/18 00:43:39;;;;;;;20.57;14.93;;;22.30;82.50;;;;;;5052889;28;20231;-93
2022/08/18 00:46:09;;;;;;;22.43;16.17;;;22.30;82.80;;;;;;5060601;28;20229;-92
2022/08/18 00:48:36;;;;;;;19.40;14.33;;;22.30;83.10;;;;;;5068269;28;20212;-93
2022/08/18 00:51:11;;;;;;;15.07;13.47;;;22.30;83.10;;;;;;5057659;28;20204;-94
2022/08/18 00:53:44;;;;;;;17.70;14.63;;;22.30;83.20;;;;;;5056313;28;20287;-94
2022/08/18 00:56:17;;;;;;;17.80;15.70;;;22.30;82.90;;;;;;5055056;28;20211;-94
2022/08/18 00:58:50;;;;;;;18.20;14.70;;;22.20;82.90;;;;;;5054383;28;20291;-93
2022/08/18 01:01:22;;;;;;;23.00;16.77;;;22.20;82.60;;;;;;5054299;28;20204;-95
2022/08/18 01:03:59;;;;;;;19.07;14.50;;;22.20;83.10;;;;;;5049367;28;20268;-95
2022/08/18 01:06:33;;;;;;;23.17;15.90;;;22.20;83.80;;;;;;5055863;28;20207;-93
2022/08/18 01:09:00;;;;;;;20.00;15.57;;;22.20;83.70;;;;;;5040468;28;20205;-93
2022/08/18 01:11:28;;;;;;;17.83;14.00;;;22.20;83.20;;;;;;5033906;28;20221;-93
2022/08/18 01:13:58;;;;;;;18.93;15.10;;;22.20;83.40;;;;;;5032885;28;20214;-94
2022/08/18 01:22:06;;;;;;;17.40;14.33;;;22.20;83.50;;;;;;5034125;28;20208;-93
2022/08/18 01:27:28;;;;;;;22.70;15.03;;;22.10;84.00;;;;;;5029346;28;20711;-93
2022/08/18 01:29:56;;;;;;;17.57;14.20;;;22.10;83.70;;;;;;5016038;28;20216;-93
2022/08/18 01:32:26;;;;;;;18.60;14.30;;;22.00;83.30;;;;;;5034198;28;20242;-93
2022/08/18 01:34:53;;;;;;;21.07;15.50;;;22.00;83.70;;;;;;5033541;28;20216;-94
2022/08/18 01:37:24;;;;;;;20.10;15.90;;;22.00;83.60;;;;;;5033180;28;20216;-93
2022/08/18 01:39:53;;;;;;;22.23;16.27;;;22.00;83.80;;;;;;5030340;28;20265;-93
2022/08/18 01:42:20;;;;;;;17.27;14.47;;;22.00;83.80;;;;;;5030722;28;20778;-93
2022/08/18 01:44:51;;;;;;;18.90;14.30;;;22.00;83.70;;;;;;5031178;28;20814;-93
2022/08/18 01:47:19;;;;;;;18.63;13.70;;;22.00;84.40;;;;;;5031390;28;20648;-93
2022/08/18 01:49:47;;;;;;;18.80;14.20;;;22.00;84.10;;;;;;5051242;28;20303;-94
2022/08/18 01:52:19;;;;;;;17.97;13.87;;;21.90;84.20;;;;;;5032946;28;20234;-93
2022/08/18 01:54:48;;;;;;;19.93;14.40;;;21.90;84.10;;;;;;5031086;28;20205;-93
2022/08/18 01:57:20;;;;;;;21.17;15.80;;;21.90;83.50;;;;;;5023168;28;20290;-94
2022/08/18 01:59:47;;;;;;;18.03;15.77;;;21.80;83.60;;;;;;5028559;28;20239;-93
2022/08/18 02:02:23;;;;;;;16.80;14.63;;;21.90;83.50;;;;;;5015822;28;20286;-93
2022/08/18 02:04:51;;;;;;;19.80;14.73;;;21.80;83.60;;;;;;5022318;28;20201;-94
2022/08/18 02:07:22;;;;;;;18.03;13.50;;;21.80;83.60;;;;;;5016728;28;20301;-93
2022/08/18 02:09:49;;;;;;;19.67;14.27;;;21.80;83.90;;;;;;5039807;28;20207;-94
2022/08/18 02:12:24;;;;;;;13.83;12.40;;;21.70;83.80;;;;;;5051574;28;20233;-93
2022/08/18 02:14:51;;;;;;;17.67;14.50;;;21.80;84.40;;;;;;5050683;28;20184;-93
2022/08/18 02:17:20;;;;;;;18.30;13.63;;;21.70;84.00;;;;;;5044321;28;20200;-95
2022/08/18 02:20:00;;;;;;;14.60;12.83;;;21.70;84.30;;;;;;5034987;28;20203;-94
2022/08/18 02:22:30;;;;;;;15.47;13.27;;;21.70;85.00;;;;;;5035848;28;20204;-93
2022/08/18 02:24:58;;;;;;;20.20;14.00;;;21.70;84.90;;;;;;5032502;28;20197;-93
2022/08/18 02:27:31;;;;;;;20.20;15.73;;;21.70;84.10;;;;;;5032884;28;20205;-93
2022/08/18 02:30:01;;;;;;;16.43;13.77;;;21.60;84.70;;;;;;5031630;28;20239;-93
2022/08/18 02:32:29;;;;;;;17.23;13.73;;;21.60;84.20;;;;;;5032903;28;20236;-93
2022/08/18 02:34:56;;;;;;;21.77;15.30;;;21.60;83.80;;;;;;5032098;28;20208;-92
2022/08/18 02:37:24;;;;;;;18.93;15.20;;;21.50;83.80;;;;;;5032325;28;20239;-92
2022/08/18 02:39:52;;;;;;;19.27;13.87;;;21.60;84.20;;;;;;5030681;28;20235;-93
2022/08/18 02:42:20;;;;;;;26.63;15.80;;;21.50;84.10;;;;;;5032133;28;20255;-93
2022/08/18 02:44:52;;;;;;;16.93;14.77;;;21.50;84.40;;;;;;5031619;28;20208;-92
2022/08/18 02:47:19;;;;;;;22.57;15.43;;;21.50;85.10;;;;;;5012201;28;20208;-92
2022/08/18 02:49:47;;;;;;;17.23;14.13;;;21.50;84.90;;;;;;5017354;28;20193;-93
2022/08/18 02:52:18;;;;;;;19.20;14.93;;;21.50;84.90;;;;;;5029215;28;20705;-91
2022/08/18 02:54:49;;;;;;;20.00;14.83;;;21.50;84.60;;;;;;5037387;28;20260;-93
2022/08/18 02:57:19;;;;;;;16.63;13.30;;;21.40;84.00;;;;;;5013155;28;20210;-92
2022/08/18 02:59:48;;;;;;;16.67;13.37;;;21.40;84.00;;;;;;5016247;28;20205;-92
2022/08/18 03:02:17;;;;;;;20.60;14.93;;;21.40;84.00;;;;;;5032947;28;20239;-93
2022/08/18 03:04:44;;;;;;;21.83;15.03;;;21.30;83.90;;;;;;5013787;28;20282;-93
2022/08/18 03:07:11;;;;;;;19.47;14.63;;;21.40;84.00;;;;;;5035881;28;20263;-93
2022/08/18 03:09:40;;;;;;;18.87;13.73;;;21.30;83.70;;;;;;5025730;28;20217;-92
2022/08/18 03:12:07;;;;;;;18.40;14.27;;;21.30;84.20;;;;;;5029403;28;20288;-93
2022/08/18 03:14:35;;;;;;;16.83;13.57;;;21.30;84.30;;;;;;5032190;28;20222;-93
2022/08/18 03:17:05;;;;;;;22.17;15.27;;;21.30;84.50;;;;;;5033730;28;20216;-93
2022/08/18 03:19:37;;;;;;;18.13;13.43;;;21.30;84.70;;;;;;5036007;28;20229;-92
2022/08/18 03:22:07;;;;;;;19.70;15.07;;;21.20;85.60;;;;;;5036182;28;20210;-93
2022/08/18 03:24:36;;;;;;;19.40;13.23;;;21.20;85.30;;;;;;5035150;28;20256;-93
2022/08/18 03:27:06;;;;;;;18.63;14.20;;;21.20;85.20;;;;;;5035435;28;20227;-92
2022/08/18 03:29:35;;;;;;;25.83;16.27;;;21.20;85.50;;;;;;5044582;28;20176;-92
2022/08/18 03:32:03;;;;;;;14.90;12.87;;;21.20;85.30;;;;;;5040149;28;20272;-94
2022/08/18 03:34:31;;;;;;;20.50;15.07;;;21.20;84.50;;;;;;5033643;28;20283;-94
2022/08/18 03:37:01;;;;;;;19.83;14.27;;;21.10;84.40;;;;;;5036525;28;20202;-93
2022/08/18 03:39:29;;;;;;;18.47;13.77;;;21.20;84.40;;;;;;5034627;28;20218;-93
2022/08/18 03:41:58;;;;;;;19.17;13.90;;;21.10;84.20;;;;;;5034204;28;20251;-93
2022/08/18 03:44:29;;;;;;;16.50;12.03;;;21.10;84.20;;;;;;5033488;28;20654;-93
2022/08/18 03:46:56;;;;;;;19.73;14.33;;;21.10;84.60;;;;;;5020093;28;20205;-93
2022/08/18 03:49:25;;;;;;;22.83;14.30;;;21.10;84.00;;;;;;5039783;28;20201;-93
2022/08/18 03:51:55;;;;;;;13.57;12.27;;;21.10;84.50;;;;;;5032254;28;20337;-93
2022/08/18 03:54:43;;;;;;;16.67;11.73;;;21.10;85.10;;;;;;5036692;28;20201;-92
2022/08/18 03:57:17;;;;;;;17.10;13.83;;;21.00;85.40;;;;;;5034832;28;20200;-92
2022/08/18 03:59:44;;;;;;;19.47;13.67;;;21.00;85.10;;;;;;5032445;28;20697;-93
2022/08/18 04:02:13;;;;;;;17.27;13.83;;;21.00;84.60;;;;;;5034535;28;20200;-92
2022/08/18 04:04:42;;;;;;;15.00;12.17;;;20.90;84.30;;;;;;5033117;28;20214;-92
2022/08/18 04:07:16;;;;;;;17.97;13.17;;;21.00;84.60;;;;;;5032612;28;20278;-92
2022/08/18 04:09:45;;;;;;;18.13;13.13;;;20.90;85.20;;;;;;5032226;28;20270;-92
2022/08/18 04:12:15;;;;;;;21.70;14.43;;;20.90;85.80;;;;;;5032133;28;20315;-92
2022/08/18 04:14:45;;;;;;;18.97;14.60;;;20.90;86.20;;;;;;5033396;28;20307;-92
2022/08/18 04:17:12;;;;;;;26.90;18.03;;;20.90;86.70;;;;;;5030819;28;20922;-91
2022/08/18 04:19:39;;;;;;;20.27;16.33;;;20.90;86.10;;;;;;5031702;28;20701;-92
2022/08/18 04:22:07;;;;;;;23.13;17.20;;;20.90;85.80;;;;;;5034586;28;20238;-93
2022/08/18 04:24:35;;;;;;;27.03;17.37;;;20.90;86.10;;;;;;5051892;28;20208;-94
2022/08/18 04:27:05;;;;;;;17.93;13.97;;;20.90;86.60;;;;;;5035189;28;20213;-93
2022/08/18 04:29:32;;;;;;;25.37;16.90;;;20.90;86.70;;;;;;5034897;28;20244;-92
2022/08/18 04:32:04;;;;;;;21.07;14.57;;;20.90;86.40;;;;;;5033721;28;20201;-92
2022/08/18 04:34:33;;;;;;;23.03;15.70;;;20.90;86.80;;;;;;5033534;28;20232;-92
2022/08/18 04:37:01;;;;;;;18.17;14.27;;;20.90;86.40;;;;;;5035515;28;20252;-93
2022/08/18 04:39:30;;;;;;;18.70;13.70;;;20.90;86.70;;;;;;5036145;28;20200;-92
2022/08/18 04:41:58;;;;;;;15.33;13.70;;;20.90;87.10;;;;;;5046235;28;20208;-93
2022/08/18 04:44:26;;;;;;;20.97;15.77;;;20.90;86.80;;;;;;5032441;28;20243;-93
2022/08/18 04:46:54;;;;;;;17.67;15.37;;;20.90;87.40;;;;;;5034006;28;20306;-93
2022/08/18 04:49:26;;;;;;;23.33;16.97;;;20.90;87.50;;;;;;5033295;28;20210;-92
2022/08/18 04:54:41;;;;;;;21.37;15.70;;;20.90;88.20;;;;;;5033358;28;20215;-92
2022/08/18 04:57:10;;;;;;;21.93;16.87;;;20.90;88.90;;;;;;5029671;28;20250;-92
2022/08/18 04:59:40;;;;;;;19.90;15.30;;;21.00;88.90;;;;;;5032098;28;20482;-92
2022/08/18 05:02:08;;;;;;;20.47;14.90;;;21.00;88.90;;;;;;5031790;28;20249;-93
2022/08/18 05:04:36;;;;;;;20.40;15.80;;;21.00;88.90;;;;;;5032366;28;20667;-93
2022/08/18 05:07:04;;;;;;;22.03;15.67;;;21.00;88.60;;;;;;5031843;28;20671;-93
2022/08/18 05:09:33;;;;;;;19.30;14.27;;;21.00;88.20;;;;;;5030036;28;20206;-92
2022/08/18 05:12:02;;;;;;;18.47;14.07;;;21.00;88.50;;;;;;5032986;28;20210;-92
2022/08/18 05:14:31;;;;;;;19.40;14.60;;;21.00;88.50;;;;;;5032868;28;20295;-93
2022/08/18 05:17:01;;;;;;;19.43;14.87;;;21.10;88.60;;;;;;5032795;28;20924;-93
2022/08/18 05:19:29;;;;;;;22.90;15.63;;;21.00;88.40;;;;;;5033710;28;20265;-93
2022/08/18 05:21:57;;;;;;;17.03;13.83;;;21.10;88.40;;;;;;5034008;28;20240;-94
2022/08/18 05:24:28;;;;;;;18.50;14.87;;;21.10;87.80;;;;;;5034107;28;20241;-93
2022/08/18 05:26:56;;;;;;;18.63;15.37;;;21.10;87.80;;;;;;5033605;28;20269;-93
2022/08/18 05:29:23;;;;;;;21.10;16.47;;;21.10;88.10;;;;;;5034274;28;20824;-92
2022/08/18 05:31:55;;;;;;;21.80;16.70;;;21.10;88.30;;;;;;5032963;28;20268;-93
2022/08/18 05:34:24;;;;;;;27.70;19.47;;;21.10;88.70;;;;;;5033923;28;20224;-93
2022/08/18 05:37:03;;;;;;;27.47;18.13;;;21.10;89.00;;;;;;5024623;28;20648;-92
2022/08/18 05:39:38;;;;;;;22.40;16.77;;;21.10;89.10;;;;;;5034331;28;20613;-93
2022/08/18 05:42:08;;;;;;;20.70;15.63;;;21.20;89.30;;;;;;5032609;28;20204;-92
2022/08/18 05:44:41;;;;;;;25.43;16.87;;;21.20;89.70;;;;;;5029247;28;20265;-93
2022/08/18 05:47:13;;;;;;;24.73;17.47;;;21.20;90.00;;;;;;5031720;28;20215;-93
2022/08/18 05:49:43;;;;;;;21.93;15.83;;;21.20;90.10;;;;;;5030666;28;20269;-93
2022/08/18 05:52:15;;;;;;;21.77;16.97;;;21.20;90.20;;;;;;5030565;28;20208;-93
2022/08/18 05:57:41;;;;;;;21.13;16.10;;;21.20;89.80;;;;;;5031143;28;20205;-93
2022/08/18 06:00:10;;;;;;;20.77;15.17;;;21.20;90.10;;;;;;5028181;28;20890;-94
2022/08/18 06:02:46;;;;;;;24.03;17.20;;;21.20;90.10;;;;;;5030970;28;20201;-93
2022/08/18 06:05:23;;;;;;;22.20;16.87;;;21.30;90.40;;;;;;5028495;28;20219;-94
2022/08/18 06:07:55;;;;;;;18.90;15.50;;;21.30;90.40;;;;;;5033866;28;20680;-93
2022/08/18 06:10:32;;;;;;;21.40;15.53;;;21.30;90.40;;;;;;5023429;28;20273;-95
2022/08/18 06:13:01;;;;;;;22.23;16.00;;;21.30;90.50;;;;;;5047871;28;20215;-95
2022/08/18 06:15:49;;;;;;;16.97;15.17;;;21.40;90.40;;;;;;5048863;28;20212;-95
2022/08/18 06:18:32;;;;;;;20.07;15.90;;;21.40;90.70;;;;;;5048121;28;20620;-94
2022/08/18 06:21:18;;;;;;;19.90;15.23;;;21.40;90.70;;;;;;5045704;28;20206;-94
2022/08/18 06:23:51;;;;;;;20.60;16.30;;;21.40;90.80;;;;;;5043414;28;20207;-94
2022/08/18 06:26:25;;;;;;;18.17;16.17;;;21.50;90.80;;;;;;5040902;28;20203;-95
2022/08/18 06:29:08;;;;;;;19.10;15.40;;;21.50;90.90;;;;;;5033121;28;20202;-93
2022/08/18 06:31:45;;;;;;;23.67;18.10;;;21.50;91.00;;;;;;5045520;28;20240;-93
2022/08/18 06:34:31;;;;;;;20.37;15.33;;;21.50;91.00;;;;;;5043960;28;20224;-94
2022/08/18 06:37:10;;;;;;;19.77;16.17;;;21.60;91.30;;;;;;5023433;28;20205;-93
2022/08/18 06:39:46;;;;;;;21.30;15.90;;;21.60;91.40;;;;;;5030373;28;20185;-94
2022/08/18 06:42:25;;;;;;;25.20;17.27;;;21.70;91.50;;;;;;5056228;28;20183;-93
2022/08/18 06:45:12;;;;;;;20.03;15.67;;;21.70;91.60;;;;;;5057421;28;20190;-93
2022/08/18 06:48:16;;;;;;;16.27;14.57;;;21.80;91.70;;;;;;5049407;28;20238;-94
2022/08/18 06:51:16;;;;;;;15.37;13.70;;;21.80;91.80;;;;;;5048730;28;20185;-93
2022/08/18 06:54:01;;;;;;;17.00;14.03;;;21.90;91.70;;;;;;5046815;28;20251;-95
2022/08/18 06:56:36;;;;;;;15.07;13.43;;;21.90;91.80;;;;;;5034297;28;20321;-95
2022/08/18 06:59:24;;;;;;;15.63;13.87;;;21.90;91.90;;;;;;5019612;28;20226;-94
2022/08/18 07:01:59;;;;;;;19.67;15.00;;;22.00;92.40;;;;;;5052674;28;20356;-95
2022/08/18 07:04:46;;;;;;;18.97;14.60;;;22.10;92.50;;;;;;5052908;28;20201;-95
2022/08/18 07:07:20;;;;;;;19.27;14.00;;;22.10;92.80;;;;;;5045387;28;20232;-92
2022/08/18 07:09:55;;;;;;;17.43;12.47;;;22.20;92.80;;;;;;5044742;28;20664;-91
2022/08/18 07:12:26;;;;;;;17.40;12.83;;;22.30;93.00;;;;;;5043981;28;20220;-93
2022/08/18 07:14:57;;;;;;;15.17;12.07;;;22.40;92.70;;;;;;5026159;28;20286;-93
2022/08/18 07:17:33;;;;;;;14.03;11.33;;;22.50;92.90;;;;;;5043160;28;20573;-93
2022/08/18 07:20:11;;;;;;;13.30;11.63;;;22.60;92.90;;;;;;5025915;28;20212;-94
2022/08/18 07:22:57;;;;;;;17.80;11.60;;;22.70;93.10;;;;;;5032500;28;20215;-91
2022/08/18 07:25:38;;;;;;;16.47;12.37;;;22.70;93.10;;;;;;5041178;28;20208;-91
2022/08/18 07:28:05;;;;;;;14.50;11.53;;;22.90;93.00;;;;;;5039482;28;20227;-92
2022/08/18 07:30:38;;;;;;;13.50;11.00;;;22.90;92.60;;;;;;5043865;28;20286;-93
2022/08/18 07:33:17;;;;;;;19.03;12.57;;;23.00;92.90;;;;;;5048123;28;20272;-93
2022/08/18 07:35:52;;;;;;;13.90;10.97;;;23.10;92.90;;;;;;5026081;28;20194;-92
2022/08/18 07:38:35;;;;;;;14.43;10.33;;;23.20;92.70;;;;;;5036767;28;20292;-94
2022/08/18 07:41:15;;;;;;;14.43;11.60;;;23.30;92.70;;;;;;5044470;28;20201;-92
2022/08/18 07:44:15;;;;;;;13.63;10.50;;;23.40;92.60;;;;;;5043195;28;20198;-94
2022/08/18 07:46:51;;;;;;;15.00;10.60;;;23.40;92.30;;;;;;5021866;28;20262;-93
2022/08/18 07:49:22;;;;;;;13.57;10.07;;;23.50;92.00;;;;;;5038705;28;20209;-94
2022/08/18 07:51:57;;;;;;;12.33;9.70;;;23.60;91.90;;;;;;5048282;28;20212;-95
2022/08/18 07:54:50;;;;;;;13.97;9.60;;;23.60;91.90;;;;;;5047770;28;20291;-96
2022/08/18 07:57:40;;;;;;;13.93;10.80;;;23.70;92.00;;;;;;5048640;28;20268;-96
2022/08/18 08:00:22;;;;;;;12.40;10.00;;;23.80;92.20;;;;;;5047640;28;20204;-96
2022/08/18 08:03:12;;;;;;;13.83;11.03;;;23.90;92.30;;;;;;5047005;28;20779;-96
2022/08/18 08:06:00;;;;;;;10.67;9.30;;;24.00;92.20;;;;;;5032374;28;20207;-96
2022/08/18 08:08:42;;;;;;;11.70;8.03;;;24.00;91.70;;;;;;5048039;28;20207;-95
2022/08/18 08:11:25;;;;;;;11.83;6.77;;;24.10;91.20;;;;;;5048380;28;20242;-93
2022/08/18 08:14:29;;;;;;;7.40;5.53;;;24.20;90.70;;;;;;5048716;28;20239;-93
2022/08/18 08:17:23;;;;;;;10.73;6.77;;;24.30;90.70;;;;;;5035173;28;20204;-93
2022/08/18 08:20:11;;;;;;;10.07;6.77;;;24.30;90.60;;;;;;5029776;28;20624;-92
2022/08/18 08:22:52;;;;;;;11.47;7.67;;;24.40;90.00;;;;;;5046396;28;20230;-95
2022/08/18 08:25:38;;;;;;;11.70;7.70;;;24.50;89.90;;;;;;5043971;28;20225;-92
2022/08/18 08:28:14;;;;;;;10.13;7.20;;;24.50;89.70;;;;;;5041776;28;20203;-94
2022/08/18 08:30:58;;;;;;;8.03;5.67;;;24.60;89.60;;;;;;5043534;28;20207;-91
2022/08/18 08:33:38;;;;;;;9.87;7.13;;;24.70;88.20;;;;;;5044899;28;20208;-92
2022/08/18 08:36:24;;;;;;;9.57;6.77;;;24.70;87.60;;;;;;5026834;28;20265;-93
2022/08/18 08:39:05;;;;;;;10.37;6.80;;;24.80;88.00;;;;;;5032206;28;20212;-96
2022/08/18 08:41:48;;;;;;;6.43;5.60;;;24.90;87.10;;;;;;5048313;28;20209;-96
2022/08/18 08:44:33;;;;;;;8.93;5.60;;;24.90;85.90;;;;;;5051540;28;20236;-96
2022/08/18 08:47:22;;;;;;;13.10;8.13;;;24.90;86.10;;;;;;5052257;28;20290;-94
2022/08/18 08:49:56;;;;;;;8.00;7.00;;;25.00;86.30;;;;;;5044768;28;20203;-96
2022/08/18 08:52:29;;;;;;;10.97;7.73;;;25.10;86.20;;;;;;5043006;28;20254;-95
2022/08/18 08:55:03;;;;;;;11.67;7.57;;;25.20;86.80;;;;;;5049337;28;20236;-92
2022/08/18 08:57:37;;;;;;;12.30;8.30;;;25.30;86.30;;;;;;5056247;28;20242;-93
2022/08/18 09:00:14;;;;;;;9.00;7.00;;;25.30;85.70;;;;;;5053936;28;20228;-93
2022/08/18 09:02:59;;;;;;;7.27;6.33;;;25.40;85.20;;;;;;5049270;28;20193;-93
2022/08/18 09:05:40;;;;;;;11.57;8.47;;;25.40;84.90;;;;;;5040551;28;20205;-93
2022/08/18 09:08:35;;;;;;;7.93;7.00;;;25.50;85.30;;;;;;5023176;28;20671;-95
2022/08/18 09:11:32;;;;;;;10.00;7.20;;;25.60;83.90;;;;;;5026092;28;20255;-95
2022/08/18 09:14:33;;;;;;;8.83;6.93;;;25.80;82.80;;;;;;5010186;28;20245;-91
2022/08/18 09:17:15;;;;;;;7.43;5.80;;;25.90;82.70;;;;;;5028274;28;20209;-94
2022/08/18 09:20:12;;;;;;;11.97;7.10;;;26.00;83.70;;;;;;5022362;28;20216;-93
2022/08/18 09:22:47;;;;;;;7.07;5.73;;;26.20;83.20;;;;;;5022536;28;20208;-96
2022/08/18 09:25:33;;;;;;;9.23;6.47;;;26.30;80.30;;;;;;5022533;28;20220;-95
2022/08/18 09:28:11;;;;;;;7.67;5.77;;;26.50;79.50;;;;;;5041334;28;20205;-94
2022/08/18 09:30:45;;;;;;;9.37;6.63;;;26.60;78.60;;;;;;5041858;28;20204;-94
2022/08/18 09:33:23;;;;;;;7.50;5.43;;;26.70;78.00;;;;;;5038282;28;20211;-95
2022/08/18 09:36:26;;;;;;;7.47;5.70;;;26.90;77.10;;;;;;5039082;28;20239;-95
2022/08/18 09:41:51;;;;;;;8.13;5.90;;;27.00;77.20;;;;;;5039158;28;20441;-92
2022/08/18 09:45:04;;;;;;;8.67;6.13;;;27.10;76.40;;;;;;5034905;28;20213;-95
2022/08/18 09:48:01;;;;;;;9.73;6.27;;;27.10;74.90;;;;;;4997701;28;21123;-93
2022/08/18 09:50:56;;;;;;;7.97;5.80;;;27.20;75.10;;;;;;5041980;28;20201;-93
2022/08/18 09:54:20;;;;;;;9.27;6.07;;;27.30;74.70;;;;;;5043624;28;20312;-95
2022/08/18 09:57:21;;;;;;;11.30;7.20;;;27.30;74.40;;;;;;5029469;28;20276;-92
2022/08/18 10:00:18;;;;;;;9.33;6.43;;;27.30;73.70;;;;;;5034806;28;20263;-95
2022/08/18 10:03:13;;;;;;;9.47;6.87;;;27.30;73.00;;;;;;5029805;28;20194;-94
2022/08/18 10:05:55;;;;;;;6.37;5.73;;;27.40;72.70;;;;;;5040537;28;20234;-95
2022/08/18 10:08:53;;;;;;;12.73;6.37;;;27.50;76.10;;;;;;5036609;28;20197;-95
2022/08/18 10:11:47;;;;;;;7.93;6.43;;;27.50;71.90;;;;;;5035423;28;20228;-95
2022/08/18 10:14:48;;;;;;;10.47;7.97;;;27.70;72.70;;;;;;5038744;28;20264;-94
2022/08/18 10:17:26;;;;;;;12.80;8.63;;;27.90;71.70;;;;;;5032264;28;20199;-94
2022/08/18 10:20:05;;;;;;;8.50;5.70;;;28.10;73.60;;;;;;5028734;28;20248;-95
2022/08/18 10:22:40;;;;;;;8.70;6.67;;;28.30;73.90;;;;;;5029282;28;20259;-93
2022/08/18 10:25:10;;;;;;;8.70;6.03;;;28.40;71.80;;;;;;5022034;28;20196;-93
2022/08/18 10:27:55;;;;;;;8.87;6.43;;;28.60;71.90;;;;;;5033952;28;21676;-94
2022/08/18 10:31:03;;;;;;;8.43;5.93;;;28.80;70.30;;;;;;5038731;28;20194;-95
2022/08/18 10:34:11;;;;;;;9.40;6.60;;;28.90;67.80;;;;;;5040020;28;20192;-95
2022/08/18 10:36:51;;;;;;;8.87;6.20;;;29.10;67.60;;;;;;5038650;28;20267;-94
2022/08/18 10:39:22;;;;;;;8.03;5.67;;;29.20;67.90;;;;;;5053310;28;20242;-96
2022/08/18 10:42:09;;;;;;;6.70;5.37;;;29.20;68.00;;;;;;5038496;28;20208;-94
2022/08/18 10:44:44;;;;;;;9.73;7.03;;;29.30;65.60;;;;;;5034739;28;20201;-94
2022/08/18 10:47:23;;;;;;;6.43;5.50;;;29.30;64.40;;;;;;5053288;28;20291;-95
2022/08/18 10:49:52;;;;;;;6.40;5.73;;;29.30;64.00;;;;;;5055887;28;20321;-95
2022/08/18 10:52:47;;;;;;;6.93;5.83;;;29.30;65.30;;;;;;5037107;28;20242;-96
2022/08/18 10:55:33;;;;;;;8.97;6.57;;;29.30;64.10;;;;;;5043965;28;20212;-95
2022/08/18 10:58:15;;;;;;;10.27;7.27;;;29.30;65.80;;;;;;5029759;28;20471;-93
2022/08/18 11:01:03;;;;;;;8.53;6.40;;;29.40;63.80;;;;;;5051744;28;20263;-95
2022/08/18 11:03:43;;;;;;;8.23;6.70;;;29.50;63.10;;;;;;5032442;28;20201;-94
2022/08/18 11:06:20;;;;;;;8.37;6.53;;;29.60;63.20;;;;;;5032989;28;20221;-93
2022/08/18 11:08:57;;;;;;;8.10;5.77;;;29.70;63.30;;;;;;5035573;28;20201;-93
2022/08/18 11:11:36;;;;;;;7.90;6.50;;;29.90;63.80;;;;;;5033443;28;20193;-94
2022/08/18 11:14:15;;;;;;;6.53;5.40;;;30.00;62.90;;;;;;5024750;28;20204;-93
2022/08/18 11:16:57;;;;;;;5.40;4.90;;;30.20;63.20;;;;;;5037868;28;20201;-95
2022/08/18 11:19:26;;;;;;;5.97;5.33;;;30.30;62.60;;;;;;5038656;28;20215;-95
2022/08/18 11:21:54;;;;;;;6.80;5.97;;;30.50;63.20;;;;;;5030795;28;20242;-94
2022/08/18 11:24:24;;;;;;;7.38;5.65;;;30.60;63.30;;;;;;5031152;28;20225;-93
2022/08/18 11:27:00;;;;;;;6.53;5.67;;;30.80;62.60;;;;;;5038546;28;20276;-95
2022/08/18 11:29:34;;;;;;;7.77;6.13;;;31.00;60.70;;;;;;5049540;28;20205;-93
2022/08/18 11:32:09;;;;;;;6.30;4.90;;;31.10;61.00;;;;;;5047129;28;20286;-94
2022/08/18 11:34:41;;;;;;;5.97;5.18;;;31.20;60.00;;;;;;5050048;28;20223;-90
2022/08/18 11:37:27;;;;;;;6.15;5.20;;;31.30;60.60;;;;;;5049959;28;20201;-93
2022/08/18 11:40:01;;;;;;;5.15;4.65;;;31.40;59.30;;;;;;5047411;28;20197;-93
2022/08/18 11:42:51;;;;;;;8.73;5.45;;;31.50;59.40;;;;;;5051293;28;20222;-92
2022/08/18 11:45:31;;;;;;;5.45;4.90;;;31.60;58.40;;;;;;5048269;28;20268;-92
2022/08/18 11:48:20;;;;;;;8.73;5.82;;;31.70;59.40;;;;;;5047552;28;20683;-95
2022/08/18 11:51:08;;;;;;;6.20;5.38;;;31.80;58.40;;;;;;5027150;28;20201;-92
2022/08/18 11:53:42;;;;;;;6.43;5.50;;;31.90;57.30;;;;;;5045448;28;20204;-90
2022/08/18 11:56:24;;;;;;;4.85;4.32;;;32.00;58.20;;;;;;5055005;28;20225;-95
2022/08/18 11:59:08;;;;;;;4.97;4.57;;;32.00;57.20;;;;;;5050562;28;20201;-92
2022/08/18 12:01:40;;;;;;;5.30;4.90;;;32.10;57.30;;;;;;5044024;28;20587;-93
2022/08/18 12:04:40;;;;;;;6.55;5.88;;;32.20;57.60;;;;;;5052911;28;20215;-94
2022/08/18 12:07:13;;;;;;;7.13;5.93;;;32.30;56.60;;;;;;5048669;28;20228;-93
2022/08/18 12:09:52;;;;;;;6.40;5.65;;;32.30;57.00;;;;;;5032224;28;20193;-92
2022/08/18 12:12:24;;;;;;;5.90;5.30;;;32.30;56.70;;;;;;5021312;28;20200;-92
2022/08/18 12:15:08;;;;;;;5.95;4.93;;;32.30;56.60;;;;;;5044649;28;20284;-95
2022/08/18 12:17:39;;;;;;;6.65;5.20;;;32.30;56.00;;;;;;5030684;28;20192;-94
2022/08/18 12:22:57;;;;;;;5.70;5.10;;;32.30;56.40;;;;;;5050876;28;20197;-94
2022/08/18 12:25:29;;;;;;;5.63;4.88;;;32.30;56.30;;;;;;5044805;28;20319;-91
2022/08/18 12:27:58;;;;;;;7.72;5.38;;;32.30;56.30;;;;;;5024155;28;20258;-95
2022/08/18 12:30:26;;;;;;;7.55;5.68;;;32.40;56.90;;;;;;5039647;28;20227;-94
2022/08/18 12:33:00;;;;;;;6.80;5.43;;;32.40;56.20;;;;;;5043171;28;20204;-93
2022/08/18 12:35:30;;;;;;;5.57;4.90;;;32.50;55.70;;;;;;5040632;28;20236;-95
2022/08/18 12:37:58;;;;;;;5.45;4.63;;;32.60;55.40;;;;;;5042027;28;20181;-95
2022/08/18 12:40:26;;;;;;;5.43;4.80;;;32.60;56.50;;;;;;5035300;28;20972;-95
2022/08/18 12:42:58;;;;;;;6.75;5.22;;;32.60;55.40;;;;;;5036370;28;20290;-95
2022/08/18 12:45:29;;;;;;;8.30;5.97;;;32.70;54.60;;;;;;5047411;28;20197;-96
2022/08/18 12:47:58;;;;;;;9.10;6.03;;;32.80;54.90;;;;;;5041859;28;20221;-93
2022/08/18 12:50:34;;;;;;;7.40;6.15;;;32.90;55.30;;;;;;5042770;28;20197;-96
2022/08/18 12:53:09;;;;;;;6.28;5.63;;;32.90;54.90;;;;;;5053318;28;20265;-93
2022/08/18 12:55:50;;;;;;;5.75;5.25;;;32.90;54.10;;;;;;5050546;28;20223;-93
2022/08/18 12:58:17;;;;;;;9.23;6.05;;;32.90;54.00;;;;;;5049977;28;20725;-95
2022/08/18 13:00:48;;;;;;;7.95;5.80;;;32.90;54.30;;;;;;5048443;28;20209;-96
2022/08/18 13:03:31;;;;;;;6.05;5.45;;;32.90;54.20;;;;;;5050100;28;20180;-94
2022/08/18 13:05:58;;;;;;;5.78;5.10;;;32.90;53.40;;;;;;5052485;28;20251;-93
2022/08/18 13:09:01;;;;;;;5.75;4.82;;;33.00;54.50;;;;;;5049789;28;20251;-96
2022/08/18 13:11:33;;;;;;;5.80;5.28;;;33.00;53.80;;;;;;5054559;28;20189;-94
2022/08/18 13:14:03;;;;;;;5.85;5.35;;;33.10;53.80;;;;;;5054266;28;20208;-96
2022/08/18 13:16:36;;;;;;;8.05;6.13;;;33.20;53.60;;;;;;5051953;28;20217;-96
2022/08/18 13:19:12;;;;;;;7.07;5.35;;;33.20;54.00;;;;;;5054658;28;20218;-94
2022/08/18 13:21:46;;;;;;;6.38;5.72;;;33.30;53.20;;;;;;5040629;28;20193;-92
2022/08/18 13:27:00;;;;;;;5.28;4.70;;;33.50;52.50;;;;;;5046107;28;20191;-96
2022/08/18 13:29:37;;;;;;;6.35;5.75;;;33.50;52.60;;;;;;5047083;28;20173;-96
2022/08/18 13:32:18;;;;;;;5.75;5.25;;;33.60;52.80;;;;;;5053564;28;20260;-93
2022/08/18 13:34:53;;;;;;;5.85;5.43;;;33.70;52.10;;;;;;5035731;28;20200;-95
2022/08/18 13:37:20;;;;;;;7.38;6.20;;;33.80;51.10;;;;;;5041375;28;20207;-93
2022/08/18 13:39:57;;;;;;;6.55;5.80;;;33.80;52.50;;;;;;5047305;28;20210;-96
2022/08/18 13:42:27;;;;;;;5.20;4.80;;;33.90;52.60;;;;;;5024174;28;20217;-93
2022/08/18 13:44:59;;;;;;;6.60;5.10;;;33.90;51.70;;;;;;5029922;28;20273;-95